This is the latest recevied weather packets stored in our database for station/object G7UKK-10. If no packets are shown the sender has not sent any weather packets the latest 10 day(s).
| Time | Temp. | Humidity | Pressure | Rain* | Wind** | Luminosity | Snow |
|---|---|---|---|---|---|---|---|
| 1777538416 | 11.67° C | 73% | 1027.5 hPa | 0 mm | - | - | - |
| 1777537516 | 11.11° C | 75% | 1027.9 hPa | 0 mm | - | - | - |
| 1777536616 | 10.56° C | 79% | 1027.9 hPa | 0 mm | - | - | - |
| 1777535717 | 10° C | 80% | 1028 hPa | 0 mm | - | - | - |
| 1777534816 | 8.89° C | 84% | 1028.1 hPa | 0 mm | - | - | - |
| 1777533916 | 7.78° C | 86% | 1028.3 hPa | 0 mm | - | - | - |
| 1777533016 | 6.67° C | 91% | 1028.3 hPa | 0 mm | - | - | - |
| 1777532116 | 6.67° C | 92% | 1028.4 hPa | 0 mm | - | - | - |
| 1777531217 | 5.56° C | 92% | 1028.6 hPa | 0 mm | - | - | - |
| 1777530316 | 5° C | 93% | 1028.8 hPa | 0 mm | - | - | - |
| 1777529416 | 4.44° C | 93% | 1028.6 hPa | 0 mm | - | - | - |
| 1777528516 | 4.44° C | 93% | 1028.4 hPa | 0 mm | - | - | - |
| 1777527616 | 3.89° C | 93% | 1028.6 hPa | 0 mm | - | - | - |
| 1777526716 | 3.89° C | 93% | 1028.4 hPa | 0 mm | - | - | - |
| 1777525817 | 3.33° C | 93% | 1028.2 hPa | 0 mm | - | - | - |
| 1777524917 | 3.33° C | 93% | 1028.3 hPa | 0 mm | - | - | - |
| 1777524016 | 3.89° C | 93% | 1028.2 hPa | 0 mm | - | - | - |
| 1777523116 | 3.89° C | 93% | 1028.4 hPa | 0 mm | - | - | - |
| 1777522216 | 3.89° C | 93% | 1028.4 hPa | 0 mm | - | - | - |
| 1777521316 | 3.89° C | 92% | 1028.5 hPa | 0 mm | - | - | - |
| 1777520416 | 3.33° C | 91% | 1028.5 hPa | 0 mm | - | - | - |
| 1777519516 | 3.33° C | 91% | 1028.7 hPa | 0 mm | - | - | - |
| 1777518616 | 3.89° C | 91% | 1028.6 hPa | 0 mm | - | - | - |
| 1777517716 | 3.33° C | 90% | 1028.8 hPa | 0 mm | - | - | - |
| 1777516816 | 3.89° C | 90% | 1029.1 hPa | 0 mm | - | - | - |
* Rain latest hour (hover to see other rain measurements)
** Current wind speed in m/s (hover to see current wind gust speed)